createdAt,value
2023-02-18T00:04:55.038Z,7.96
2023-02-18T00:09:56.578Z,7.83
2023-02-18T00:14:58.310Z,7.68
2023-02-18T00:19:59.986Z,7.63
2023-02-18T00:25:01.577Z,7.50
2023-02-18T00:30:04.117Z,7.37
2023-02-18T00:35:06.081Z,7.25
2023-02-18T00:40:08.265Z,7.13
2023-02-18T00:45:10.069Z,7.03
2023-02-18T00:50:11.635Z,7.00
2023-02-18T00:55:13.158Z,6.97
2023-02-18T01:00:15.557Z,6.97
2023-02-18T01:05:17.076Z,6.95
2023-02-18T01:10:19.285Z,6.88
2023-02-18T01:15:21.516Z,6.89
2023-02-18T01:20:23.240Z,6.94
2023-02-18T01:25:24.757Z,6.92
2023-02-18T01:30:26.328Z,6.87
2023-02-18T01:35:28.332Z,6.87
2023-02-18T01:40:30.553Z,6.86
2023-02-18T01:45:34.927Z,6.86
2023-02-18T01:50:43.410Z,6.85
2023-02-18T01:55:46.313Z,6.84
2023-02-18T02:00:48.084Z,6.83
2023-02-18T02:05:49.710Z,6.84
2023-02-18T02:10:53.981Z,6.87
2023-02-18T02:16:26.785Z,6.88
2023-02-18T02:21:52.671Z,6.88
2023-02-18T02:27:07.049Z,6.85
2023-02-18T02:32:36.882Z,6.85
2023-02-18T02:38:04.618Z,6.83
2023-02-18T02:43:15.258Z,6.78
2023-02-18T02:48:41.917Z,6.77
2023-02-18T02:53:44.343Z,6.73
2023-02-18T02:58:53.483Z,6.70
2023-02-18T03:04:26.790Z,6.69
2023-02-18T03:09:47.145Z,6.63
2023-02-18T03:15:17.237Z,6.59
2023-02-18T03:20:43.384Z,6.56
2023-02-18T03:25:45.384Z,6.52
2023-02-18T03:30:55.738Z,6.48
2023-02-18T03:35:57.866Z,6.44
2023-02-18T03:40:59.681Z,6.42
2023-02-18T03:46:02.642Z,6.37
2023-02-18T03:51:04.426Z,6.34
2023-02-18T03:56:07.060Z,6.29
2023-02-18T04:01:08.962Z,6.25
2023-02-18T04:06:10.778Z,6.22
2023-02-18T04:11:12.686Z,6.18
2023-02-18T04:16:14.780Z,6.16
2023-02-18T04:21:16.335Z,6.11
2023-02-18T04:26:17.880Z,6.07
2023-02-18T04:31:19.480Z,6.03
2023-02-18T04:36:21.353Z,5.96
2023-02-18T04:41:22.849Z,5.94
2023-02-18T04:46:24.489Z,5.90
2023-02-18T04:51:26.128Z,5.89
2023-02-18T04:56:27.661Z,5.87
2023-02-18T05:01:29.180Z,5.85
2023-02-18T05:06:30.741Z,5.85
2023-02-18T05:11:32.427Z,5.83
2023-02-18T05:16:34.276Z,5.82
2023-02-18T05:21:35.782Z,5.80
2023-02-18T05:26:37.348Z,5.80
2023-02-18T05:31:39.069Z,5.77
2023-02-18T05:36:40.663Z,5.74
2023-02-18T05:41:42.176Z,5.71
2023-02-18T05:46:44.148Z,5.70
2023-02-18T05:51:45.752Z,5.69
2023-02-18T05:56:47.871Z,5.70
2023-02-18T06:01:49.513Z,5.71
2023-02-18T06:06:51.138Z,5.72
2023-02-18T06:11:52.676Z,5.73
2023-02-18T06:16:54.204Z,5.74
2023-02-18T06:21:56.250Z,5.75
2023-02-18T06:26:57.785Z,5.77
2023-02-18T06:32:00.025Z,5.80
2023-02-18T06:37:01.673Z,5.80
2023-02-18T06:42:03.255Z,5.83
2023-02-18T06:47:04.897Z,5.85
2023-02-18T06:52:06.449Z,5.89
2023-02-18T06:57:08.032Z,5.93
2023-02-18T07:02:12.964Z,5.96
2023-02-18T07:07:14.842Z,6.00
2023-02-18T07:12:16.392Z,6.04
2023-02-18T07:17:18.225Z,6.09
2023-02-18T07:22:19.740Z,6.12
2023-02-18T07:27:22.242Z,6.16
2023-02-18T07:32:23.978Z,6.21
2023-02-18T07:37:25.561Z,6.27
2023-02-18T07:42:27.106Z,6.31
2023-02-18T07:47:28.637Z,6.38
2023-02-18T07:52:30.206Z,6.41
2023-02-18T07:57:31.739Z,6.44
2023-02-18T08:02:33.293Z,6.49
2023-02-18T08:07:34.990Z,6.51
2023-02-18T08:12:37.792Z,6.59
2023-02-18T08:17:39.400Z,6.66
2023-02-18T08:22:40.913Z,6.77
2023-02-18T08:27:42.413Z,6.83
2023-02-18T08:32:43.998Z,6.91
2023-02-18T08:37:52.139Z,7.03
2023-02-18T08:42:55.051Z,7.09
2023-02-18T08:48:18.460Z,7.12
2023-02-18T08:53:18.778Z,7.17
2023-02-18T08:58:20.658Z,7.35
2023-02-18T09:03:22.537Z,7.38
2023-02-18T09:08:24.026Z,7.50
2023-02-18T09:13:26.607Z,7.44
2023-02-18T09:18:29.488Z,7.48
2023-02-18T09:23:32.486Z,7.45
2023-02-18T09:28:35.732Z,7.50
2023-02-18T09:33:45.813Z,7.60
2023-02-18T09:38:48.493Z,7.71
2023-02-18T09:43:54.142Z,7.70
2023-02-18T09:48:56.186Z,7.72
2023-02-18T09:53:58.199Z,7.87
2023-02-18T09:59:04.997Z,7.90
2023-02-18T10:04:30.198Z,7.88
2023-02-18T10:09:37.268Z,7.85
2023-02-18T10:14:38.788Z,7.74
2023-02-18T10:19:41.427Z,7.67
2023-02-18T10:24:48.826Z,7.58
2023-02-18T10:29:50.864Z,7.56
2023-02-18T10:35:18.427Z,7.49
2023-02-18T10:40:38.644Z,7.50
2023-02-18T10:46:09.492Z,7.58
2023-02-18T10:51:22.688Z,7.70
2023-02-18T10:56:41.437Z,7.83
2023-02-18T11:01:46.043Z,7.87
2023-02-18T11:06:52.712Z,7.96
2023-02-18T11:12:10.128Z,7.93
2023-02-18T11:17:20.412Z,7.86
2023-02-18T11:22:25.943Z,7.73
2023-02-18T11:27:50.233Z,7.76
2023-02-18T11:32:57.022Z,7.78
2023-02-18T11:38:01.331Z,7.72
2023-02-18T11:43:13.308Z,7.72
2023-02-18T11:48:23.425Z,7.83
2023-02-18T11:53:29.278Z,7.80
2023-02-18T11:58:45.000Z,7.76
2023-02-18T12:03:59.145Z,7.74
2023-02-18T12:09:26.529Z,7.80
2023-02-18T12:14:28.276Z,7.81
2023-02-18T12:19:57.993Z,7.94
2023-02-18T12:25:22.871Z,7.92
2023-02-18T12:30:48.273Z,7.91
2023-02-18T12:36:08.635Z,8.03
2023-02-18T12:41:37.416Z,8.14
2023-02-18T12:46:58.559Z,8.16
2023-02-18T12:52:27.767Z,8.16
2023-02-18T12:57:53.978Z,8.16
2023-02-18T13:03:20.592Z,8.11
2023-02-18T13:08:44.379Z,7.98
2023-02-18T13:14:09.145Z,8.01
2023-02-18T13:19:16.380Z,8.03
2023-02-18T13:24:27.330Z,8.10
2023-02-18T13:29:35.750Z,8.00
2023-02-18T13:34:46.300Z,7.87
2023-02-18T13:39:52.906Z,7.74
2023-02-18T13:44:57.532Z,7.63
2023-02-18T13:49:59.096Z,7.54
2023-02-18T13:55:00.707Z,7.53
2023-02-18T14:00:12.289Z,7.49
2023-02-18T14:05:23.925Z,7.39
2023-02-18T14:10:31.128Z,7.31
2023-02-18T14:15:33.040Z,7.26
2023-02-18T14:20:37.308Z,7.21
2023-02-18T14:25:42.410Z,7.17
2023-02-18T14:30:45.127Z,7.14
2023-02-18T14:36:06.337Z,7.08
2023-02-18T14:41:46.524Z,7.02
2023-02-18T14:47:01.326Z,6.98
2023-02-18T14:52:05.928Z,6.91
2023-02-18T14:57:14.949Z,6.87
2023-02-18T15:02:25.310Z,6.82
2023-02-18T15:07:27.348Z,6.85
2023-02-18T15:12:29.592Z,6.80
2023-02-18T15:17:32.073Z,6.68
2023-02-18T15:22:35.698Z,6.58
2023-02-18T15:27:42.219Z,6.43
2023-02-18T15:32:55.033Z,6.17
2023-02-18T15:37:59.678Z,5.80
2023-02-18T15:43:04.359Z,5.51
2023-02-18T15:48:06.513Z,5.31
2023-02-18T15:53:14.901Z,5.14
2023-02-18T15:58:37.191Z,5.07
2023-02-18T16:03:41.493Z,5.00
2023-02-18T16:09:07.447Z,4.88
2023-02-18T16:14:22.890Z,4.90
2023-02-18T16:19:25.449Z,4.97
2023-02-18T16:24:29.512Z,4.93
2023-02-18T16:29:37.588Z,4.91
2023-02-18T16:34:39.121Z,4.83
2023-02-18T16:39:40.918Z,4.82
2023-02-18T16:44:42.426Z,4.92
2023-02-18T16:49:46.693Z,5.08
2023-02-18T16:54:49.063Z,5.20
2023-02-18T16:59:50.600Z,5.24
2023-02-18T17:04:57.362Z,5.23
2023-02-18T17:09:59.676Z,5.22
2023-02-18T17:15:01.184Z,5.26
2023-02-18T17:20:04.757Z,5.30
2023-02-18T17:25:14.433Z,5.17
2023-02-18T17:30:16.054Z,5.08
2023-02-18T17:35:22.372Z,4.98
2023-02-18T17:40:28.336Z,4.98
2023-02-18T17:45:35.010Z,5.04
2023-02-18T17:50:37.054Z,4.99
2023-02-18T17:55:40.084Z,4.90
2023-02-18T18:00:55.658Z,4.79
2023-02-18T18:05:57.735Z,4.79
2023-02-18T18:11:01.226Z,4.82
2023-02-18T18:16:02.814Z,4.82
2023-02-18T18:21:05.343Z,4.73
2023-02-18T18:26:07.359Z,4.59
2023-02-18T18:31:15.174Z,4.56
2023-02-18T18:36:19.549Z,4.56
2023-02-18T18:41:22.650Z,4.51
2023-02-18T18:46:24.282Z,4.45
2023-02-18T18:51:29.950Z,4.34
2023-02-18T18:56:31.643Z,4.35
2023-02-18T19:01:33.533Z,4.37
2023-02-18T19:06:35.498Z,4.32
2023-02-18T19:11:37.031Z,4.24
2023-02-18T19:16:42.723Z,4.25
2023-02-18T19:21:46.506Z,4.28
2023-02-18T19:26:48.082Z,4.20
2023-02-18T19:31:50.973Z,4.08
2023-02-18T19:36:52.826Z,4.10
2023-02-18T19:41:54.374Z,4.14
2023-02-18T19:46:56.009Z,4.09
2023-02-18T19:52:03.965Z,3.99
2023-02-18T19:57:07.339Z,3.91
2023-02-18T20:02:14.164Z,3.93
2023-02-18T20:07:17.158Z,3.96
2023-02-18T20:12:19.589Z,3.90
2023-02-18T20:17:21.092Z,3.82
2023-02-18T20:22:22.877Z,3.75
2023-02-18T20:27:24.769Z,3.78
2023-02-18T20:32:26.508Z,3.80
2023-02-18T20:37:28.402Z,3.69
2023-02-18T20:42:29.944Z,3.67
2023-02-18T20:47:31.442Z,3.74
2023-02-18T20:52:34.654Z,3.77
2023-02-18T20:57:36.531Z,3.69
2023-02-18T21:02:38.106Z,3.68
2023-02-18T21:07:39.720Z,3.71
2023-02-18T21:12:42.654Z,3.69
2023-02-18T21:17:44.176Z,3.67
2023-02-18T21:22:45.676Z,3.74
2023-02-18T21:27:47.175Z,3.68
2023-02-18T21:32:48.744Z,3.66
2023-02-18T21:37:51.292Z,3.76
2023-02-18T21:42:52.886Z,3.77
2023-02-18T21:47:54.436Z,3.71
2023-02-18T21:52:56.420Z,3.71
2023-02-18T21:57:57.905Z,3.71
2023-02-18T22:02:59.689Z,3.68
2023-02-18T22:08:01.273Z,3.74
2023-02-18T22:13:02.847Z,3.74
2023-02-18T22:18:04.363Z,3.72
2023-02-18T22:23:06.120Z,3.71
2023-02-18T22:28:07.683Z,3.66
2023-02-18T22:33:09.148Z,3.54
2023-02-18T22:38:10.690Z,3.41
2023-02-18T22:43:12.191Z,3.33
2023-02-18T22:48:13.686Z,3.35
2023-02-18T22:53:15.204Z,3.29
2023-02-18T22:58:16.721Z,3.16
2023-02-18T23:03:18.221Z,3.03
2023-02-18T23:08:19.678Z,2.98
2023-02-18T23:13:21.159Z,2.95
2023-02-18T23:18:22.641Z,2.90
2023-02-18T23:23:24.124Z,2.82
2023-02-18T23:28:25.619Z,2.71
2023-02-18T23:33:27.168Z,2.71
2023-02-18T23:38:28.743Z,2.71
2023-02-18T23:43:30.836Z,2.68
2023-02-18T23:48:37.351Z,2.61
2023-02-18T23:53:40.021Z,2.54
2023-02-18T23:58:43.702Z,2.58
